createdAt,value
2023-03-21T00:00:36.315Z,0
2023-03-21T00:01:36.310Z,0
2023-03-21T00:02:36.321Z,0
2023-03-21T00:03:36.336Z,0
2023-03-21T00:04:48.706Z,0
2023-03-21T00:05:36.806Z,0
2023-03-21T00:06:36.312Z,0
2023-03-21T00:07:36.314Z,0
2023-03-21T00:08:36.316Z,0
2023-03-21T00:09:36.316Z,0
2023-03-21T00:10:41.288Z,0
2023-03-21T00:11:36.317Z,0
2023-03-21T00:12:36.343Z,0
2023-03-21T00:13:36.320Z,0
2023-03-21T00:14:36.321Z,0
2023-03-21T00:15:44.210Z,0
2023-03-21T00:16:37.156Z,0
2023-03-21T00:17:36.320Z,0
2023-03-21T00:18:36.322Z,0
2023-03-21T00:19:36.320Z,0
2023-03-21T00:20:36.320Z,0
2023-03-21T00:21:46.425Z,0
2023-03-21T00:22:36.328Z,0
2023-03-21T00:23:36.321Z,0
2023-03-21T00:24:36.323Z,0
2023-03-21T00:25:36.516Z,0
2023-03-21T00:26:36.332Z,0
2023-03-21T00:27:50.290Z,0
2023-03-21T00:28:36.357Z,0
2023-03-21T00:29:36.332Z,0
2023-03-21T00:30:36.336Z,0
2023-03-21T00:31:36.332Z,0
2023-03-21T00:32:42.795Z,0
2023-03-21T00:33:36.331Z,0
2023-03-21T00:34:42.758Z,0
2023-03-21T00:35:57.729Z,0
2023-03-21T00:36:36.367Z,0
2023-03-21T00:37:36.335Z,0
2023-03-21T00:38:36.334Z,0
2023-03-21T00:39:36.410Z,0
2023-03-21T00:40:40.773Z,0
2023-03-21T00:41:42.740Z,0
2023-03-21T00:42:36.335Z,0
2023-03-21T00:43:36.336Z,0
2023-03-21T00:44:36.358Z,0
2023-03-21T00:45:36.591Z,0
2023-03-21T00:46:45.398Z,0
2023-03-21T00:47:36.470Z,0
2023-03-21T00:48:36.390Z,0
2023-03-21T00:49:36.341Z,0
2023-03-21T00:50:36.341Z,0
2023-03-21T00:51:36.353Z,0
2023-03-21T00:52:40.761Z,0
2023-03-21T00:53:36.339Z,0
2023-03-21T00:54:36.348Z,0
2023-03-21T00:55:36.556Z,0
2023-03-21T00:56:36.336Z,0
2023-03-21T00:57:39.514Z,0
2023-03-21T00:58:36.344Z,0
2023-03-21T00:59:36.337Z,0
2023-03-21T01:00:36.374Z,0
2023-03-21T01:01:36.371Z,0
2023-03-21T01:02:36.342Z,0
2023-03-21T01:03:36.345Z,0
2023-03-21T01:04:36.370Z,0
2023-03-21T01:05:36.642Z,0
2023-03-21T01:06:36.339Z,0
2023-03-21T01:07:36.338Z,0
2023-03-21T01:08:48.856Z,0
2023-03-21T01:09:36.344Z,0
2023-03-21T01:10:36.346Z,0
2023-03-21T01:11:36.342Z,0
2023-03-21T01:12:36.340Z,0
2023-03-21T01:13:38.344Z,0
2023-03-21T01:14:36.343Z,0
2023-03-21T01:15:36.594Z,0
2023-03-21T01:16:36.430Z,0
2023-03-21T01:17:36.343Z,0
2023-03-21T01:18:36.339Z,0
2023-03-21T01:19:50.527Z,0
2023-03-21T01:20:36.340Z,0
2023-03-21T01:21:36.347Z,0
2023-03-21T01:22:36.353Z,0
2023-03-21T01:23:36.343Z,0
2023-03-21T01:24:40.387Z,0
2023-03-21T01:25:36.545Z,0
2023-03-21T01:26:36.350Z,0
2023-03-21T01:27:36.346Z,0
2023-03-21T01:28:36.348Z,0
2023-03-21T01:29:36.347Z,0
2023-03-21T01:30:41.574Z,0
2023-03-21T01:31:36.367Z,0
2023-03-21T01:32:36.378Z,0
2023-03-21T01:33:36.363Z,0
2023-03-21T01:34:36.351Z,0
2023-03-21T01:35:45.002Z,0
2023-03-21T01:36:36.376Z,0
2023-03-21T01:37:36.360Z,0
2023-03-21T01:38:36.357Z,0
2023-03-21T01:39:36.356Z,0
2023-03-21T01:40:36.359Z,0
2023-03-21T01:41:42.827Z,0
2023-03-21T01:42:36.358Z,0
2023-03-21T01:43:36.358Z,0
2023-03-21T01:44:36.358Z,0
2023-03-21T01:45:36.639Z,0
2023-03-21T01:46:47.683Z,0
2023-03-21T01:47:36.360Z,0
2023-03-21T01:48:36.388Z,0
2023-03-21T01:49:36.371Z,0
2023-03-21T01:50:36.369Z,0
2023-03-21T01:51:36.366Z,0
2023-03-21T01:52:38.210Z,0
2023-03-21T01:53:36.366Z,0
2023-03-21T01:54:36.367Z,0
2023-03-21T01:55:36.698Z,0
2023-03-21T01:56:36.373Z,0
2023-03-21T01:57:43.700Z,0
2023-03-21T01:58:36.368Z,0
2023-03-21T01:59:36.385Z,0
2023-03-21T02:00:36.376Z,0
2023-03-21T02:01:36.368Z,0
2023-03-21T02:02:36.370Z,0
2023-03-21T02:03:36.685Z,0
2023-03-21T02:04:36.392Z,0
2023-03-21T02:05:36.591Z,0
2023-03-21T02:06:36.372Z,0
2023-03-21T02:07:36.372Z,0
2023-03-21T02:08:39.788Z,0
2023-03-21T02:09:36.374Z,0
2023-03-21T02:10:36.375Z,0
2023-03-21T02:11:36.371Z,0
2023-03-21T02:12:36.386Z,0
2023-03-21T02:13:36.373Z,0
2023-03-21T02:14:36.370Z,0
2023-03-21T02:15:36.633Z,0
2023-03-21T02:16:36.384Z,0
2023-03-21T02:17:36.375Z,0
2023-03-21T02:18:36.374Z,0
2023-03-21T02:19:44.496Z,0
2023-03-21T02:20:36.411Z,0
2023-03-21T02:21:36.377Z,0
2023-03-21T02:22:36.382Z,0
2023-03-21T02:23:36.388Z,0
2023-03-21T02:24:36.373Z,0
2023-03-21T02:25:36.580Z,0
2023-03-21T02:26:42.253Z,0
2023-03-21T02:27:36.380Z,0
2023-03-21T02:28:36.378Z,0
2023-03-21T02:29:36.378Z,0
2023-03-21T02:30:45.802Z,0
2023-03-21T02:31:36.426Z,0
2023-03-21T02:32:37.977Z,0
2023-03-21T02:33:36.383Z,0
2023-03-21T02:34:36.376Z,0
2023-03-21T02:35:41.443Z,0
2023-03-21T02:36:36.447Z,0
2023-03-21T02:37:38.535Z,0
2023-03-21T02:38:36.374Z,0
2023-03-21T02:39:36.378Z,0
2023-03-21T02:40:36.680Z,0
2023-03-21T02:41:40.268Z,0
2023-03-21T02:42:36.378Z,0
2023-03-21T02:43:36.378Z,0
2023-03-21T02:44:36.383Z,0
2023-03-21T02:45:36.382Z,0
2023-03-21T02:46:44.094Z,0
2023-03-21T02:47:36.376Z,0
2023-03-21T02:48:49.656Z,0
2023-03-21T02:49:36.380Z,0
2023-03-21T02:50:36.685Z,0
2023-03-21T02:51:36.379Z,0
2023-03-21T02:52:39.368Z,0
2023-03-21T02:53:36.380Z,0
2023-03-21T02:54:47.433Z,0
2023-03-21T02:55:36.384Z,0
2023-03-21T02:56:36.383Z,0
2023-03-21T02:57:42.430Z,0
2023-03-21T02:58:36.387Z,0
2023-03-21T02:59:41.793Z,0
2023-03-21T03:00:36.636Z,0
2023-03-21T03:01:36.453Z,0
2023-03-21T03:02:36.389Z,0
2023-03-21T03:03:36.388Z,0
2023-03-21T03:04:36.522Z,0
2023-03-21T03:05:36.389Z,0
2023-03-21T03:06:36.392Z,0
2023-03-21T03:07:36.391Z,0
2023-03-21T03:08:42.988Z,0
2023-03-21T03:09:36.392Z,0
2023-03-21T03:10:36.607Z,0
2023-03-21T03:11:36.395Z,0
2023-03-21T03:12:36.395Z,0
2023-03-21T03:13:36.391Z,0
2023-03-21T03:14:49.743Z,0
2023-03-21T03:15:36.452Z,0
2023-03-21T03:16:36.396Z,0
2023-03-21T03:17:36.394Z,0
2023-03-21T03:18:36.395Z,0
2023-03-21T03:19:44.593Z,0
2023-03-21T03:20:36.811Z,0
2023-03-21T03:21:36.403Z,0
2023-03-21T03:22:36.397Z,0
2023-03-21T03:23:36.400Z,0
2023-03-21T03:24:36.426Z,0
2023-03-21T03:25:42.703Z,0
2023-03-21T03:26:36.402Z,0
2023-03-21T03:27:36.402Z,0
2023-03-21T03:28:36.396Z,0
2023-03-21T03:29:36.416Z,0
2023-03-21T03:30:43.296Z,0
2023-03-21T03:31:36.437Z,0
2023-03-21T03:32:36.405Z,0
2023-03-21T03:33:36.412Z,0
2023-03-21T03:34:36.404Z,0
2023-03-21T03:35:36.412Z,0
2023-03-21T03:36:36.439Z,0
2023-03-21T03:37:36.407Z,0
2023-03-21T03:38:36.422Z,0
2023-03-21T03:39:36.409Z,0
2023-03-21T03:40:36.585Z,0
2023-03-21T03:41:56.530Z,0
2023-03-21T03:42:36.406Z,0
2023-03-21T03:43:36.409Z,0
2023-03-21T03:44:36.406Z,0
2023-03-21T03:45:36.409Z,0
2023-03-21T03:46:36.442Z,0
2023-03-21T03:47:42.019Z,0
2023-03-21T03:48:36.457Z,0
2023-03-21T03:49:36.413Z,0
2023-03-21T03:50:36.698Z,0
2023-03-21T03:51:36.426Z,0
2023-03-21T03:52:38.357Z,0
2023-03-21T03:53:36.413Z,0
2023-03-21T03:54:36.410Z,0
2023-03-21T03:55:36.411Z,0
2023-03-21T03:56:36.438Z,0
2023-03-21T03:57:36.412Z,0
2023-03-21T03:58:45.171Z,0
2023-03-21T03:59:36.409Z,0
2023-03-21T04:00:36.667Z,0
2023-03-21T04:01:36.441Z,0
2023-03-21T04:02:36.458Z,0
2023-03-21T04:03:47.824Z,0
2023-03-21T04:04:36.453Z,0
2023-03-21T04:05:36.413Z,0
2023-03-21T04:06:36.409Z,0
2023-03-21T04:07:36.413Z,0
2023-03-21T04:08:36.416Z,0
2023-03-21T04:09:43.983Z,0
2023-03-21T04:10:36.740Z,0
2023-03-21T04:11:36.414Z,0
2023-03-21T04:12:36.446Z,0
2023-03-21T04:13:36.414Z,0
2023-03-21T04:14:44.261Z,0
2023-03-21T04:15:36.419Z,0
2023-03-21T04:16:36.443Z,0
2023-03-21T04:17:36.419Z,0
2023-03-21T04:18:36.418Z,0
2023-03-21T04:19:36.419Z,0
2023-03-21T04:20:37.477Z,0
2023-03-21T04:21:36.422Z,0
2023-03-21T04:22:36.426Z,0
2023-03-21T04:23:36.417Z,0
2023-03-21T04:24:36.418Z,0
2023-03-21T04:25:38.603Z,0
2023-03-21T04:26:36.416Z,0
2023-03-21T04:27:36.417Z,0
2023-03-21T04:28:36.496Z,0
2023-03-21T04:29:36.420Z,0
2023-03-21T04:30:36.754Z,0
2023-03-21T04:31:36.493Z,0
2023-03-21T04:32:36.421Z,0
2023-03-21T04:33:36.426Z,0
2023-03-21T04:34:36.426Z,0
2023-03-21T04:35:37.604Z,0
2023-03-21T04:36:36.421Z,0
2023-03-21T04:37:36.426Z,0
2023-03-21T04:38:36.436Z,0
2023-03-21T04:39:36.422Z,0
2023-03-21T04:40:36.679Z,0
2023-03-21T04:41:36.425Z,0
2023-03-21T04:42:36.430Z,0
2023-03-21T04:43:36.434Z,0
2023-03-21T04:44:36.451Z,0
2023-03-21T04:45:36.435Z,0
2023-03-21T04:46:36.428Z,0
2023-03-21T04:47:36.435Z,0
2023-03-21T04:48:36.435Z,0
2023-03-21T04:49:36.431Z,0
2023-03-21T04:50:36.652Z,1
2023-03-21T04:51:36.436Z,1
2023-03-21T04:52:36.435Z,1
2023-03-21T04:53:36.431Z,1
2023-03-21T04:54:36.434Z,1
2023-03-21T04:55:36.666Z,2
2023-03-21T04:56:36.576Z,2
2023-03-21T04:57:36.436Z,2
2023-03-21T04:58:36.435Z,2
2023-03-21T04:59:36.438Z,4
2023-03-21T05:00:36.464Z,4
2023-03-21T05:01:36.438Z,4
2023-03-21T05:02:36.443Z,4
2023-03-21T05:03:36.473Z,4
2023-03-21T05:04:36.439Z,9
2023-03-21T05:05:36.666Z,9
2023-03-21T05:06:36.463Z,9
2023-03-21T05:07:36.445Z,9
2023-03-21T05:08:36.443Z,9
2023-03-21T05:09:36.445Z,17
2023-03-21T05:10:36.455Z,17
2023-03-21T05:11:36.443Z,17
2023-03-21T05:12:36.441Z,17
2023-03-21T05:13:36.447Z,17
2023-03-21T05:14:36.446Z,29
2023-03-21T05:15:36.723Z,29
2023-03-21T05:16:36.644Z,29
2023-03-21T05:17:36.446Z,29
2023-03-21T05:18:36.448Z,29
2023-03-21T05:19:36.513Z,47
2023-03-21T05:20:36.448Z,47
2023-03-21T05:21:36.452Z,47
2023-03-21T05:22:36.449Z,47
2023-03-21T05:23:36.452Z,47
2023-03-21T05:24:36.460Z,67
2023-03-21T05:25:36.716Z,67
2023-03-21T05:26:36.456Z,67
2023-03-21T05:27:36.512Z,67
2023-03-21T05:28:36.457Z,67
2023-03-21T05:29:36.456Z,92
2023-03-21T05:30:36.502Z,92
2023-03-21T05:31:36.456Z,92
2023-03-21T05:32:36.486Z,92
2023-03-21T05:33:36.462Z,92
2023-03-21T05:34:36.464Z,129
2023-03-21T05:35:36.792Z,129
2023-03-21T05:36:36.461Z,148
2023-03-21T05:37:36.465Z,150
2023-03-21T05:38:36.463Z,150
2023-03-21T05:39:36.462Z,208
2023-03-21T05:40:36.464Z,166
2023-03-21T05:41:36.462Z,167
2023-03-21T05:42:36.462Z,217
2023-03-21T05:43:36.467Z,175
2023-03-21T05:44:36.466Z,175
2023-03-21T05:45:36.596Z,220
2023-03-21T05:46:36.509Z,222
2023-03-21T05:47:36.468Z,222
2023-03-21T05:48:36.501Z,222
2023-03-21T05:49:36.471Z,222
2023-03-21T05:50:36.466Z,222
2023-03-21T05:51:36.474Z,378
2023-03-21T05:52:36.472Z,378
2023-03-21T05:53:36.472Z,378
2023-03-21T05:54:36.474Z,378
2023-03-21T05:55:36.727Z,546
2023-03-21T05:56:36.473Z,546
2023-03-21T05:57:36.507Z,546
2023-03-21T05:58:36.477Z,546
2023-03-21T05:59:36.477Z,546
2023-03-21T06:00:36.475Z,580
2023-03-21T06:01:36.482Z,580
2023-03-21T06:02:36.510Z,580
2023-03-21T06:03:36.502Z,580
2023-03-21T06:04:36.508Z,580
2023-03-21T06:05:36.646Z,558
2023-03-21T06:06:36.478Z,558
2023-03-21T06:07:36.483Z,558
2023-03-21T06:08:36.487Z,558
2023-03-21T06:09:36.486Z,558
2023-03-21T06:10:36.481Z,760
2023-03-21T06:11:36.488Z,760
2023-03-21T06:12:36.482Z,760
2023-03-21T06:13:36.483Z,760
2023-03-21T06:14:36.480Z,760
2023-03-21T06:15:36.937Z,794
2023-03-21T06:16:36.485Z,794
2023-03-21T06:17:36.492Z,794
2023-03-21T06:18:36.478Z,794
2023-03-21T06:19:36.487Z,794
2023-03-21T06:20:36.508Z,871
2023-03-21T06:21:36.491Z,871
2023-03-21T06:22:36.515Z,871
2023-03-21T06:23:36.486Z,871
2023-03-21T06:24:36.490Z,871
2023-03-21T06:25:36.800Z,893
2023-03-21T06:26:36.488Z,893
2023-03-21T06:27:36.489Z,893
2023-03-21T06:28:36.487Z,999
2023-03-21T06:29:36.493Z,999
2023-03-21T06:30:36.492Z,999
2023-03-21T06:31:36.522Z,999
2023-03-21T06:32:36.504Z,999
2023-03-21T06:33:36.492Z,894
2023-03-21T06:34:38.414Z,894
2023-03-21T06:35:36.808Z,894
2023-03-21T06:36:36.523Z,894
2023-03-21T06:37:36.497Z,894
2023-03-21T06:38:36.497Z,702
2023-03-21T06:39:36.493Z,702
2023-03-21T06:40:36.498Z,702
2023-03-21T06:41:36.501Z,702
2023-03-21T06:42:36.497Z,702
2023-03-21T06:43:36.502Z,739
2023-03-21T06:44:36.500Z,739
2023-03-21T06:45:36.903Z,739
2023-03-21T06:46:36.551Z,789
2023-03-21T06:47:36.499Z,748
2023-03-21T06:48:36.504Z,794
2023-03-21T06:49:36.498Z,765
2023-03-21T06:50:36.513Z,765
2023-03-21T06:51:36.508Z,793
2023-03-21T06:52:36.532Z,793
2023-03-21T06:53:36.506Z,793
2023-03-21T06:54:36.502Z,793
2023-03-21T06:55:36.814Z,793
2023-03-21T06:56:36.502Z,833
2023-03-21T06:57:36.509Z,833
2023-03-21T06:58:36.523Z,833
2023-03-21T06:59:36.507Z,833
2023-03-21T07:00:36.560Z,833
2023-03-21T07:01:36.517Z,868
2023-03-21T07:02:36.551Z,868
2023-03-21T07:03:36.510Z,868
2023-03-21T07:04:36.513Z,868
2023-03-21T07:05:36.990Z,868
2023-03-21T07:06:36.514Z,899
2023-03-21T07:07:36.522Z,899
2023-03-21T07:08:36.539Z,899
2023-03-21T07:09:36.516Z,899
2023-03-21T07:10:36.520Z,899
2023-03-21T07:11:36.523Z,899
2023-03-21T07:12:36.525Z,899
2023-03-21T07:13:36.521Z,899
2023-03-21T07:14:36.522Z,899
2023-03-21T07:15:36.720Z,899
2023-03-21T07:16:36.541Z,882
2023-03-21T07:17:36.526Z,882
2023-03-21T07:18:36.522Z,882
2023-03-21T07:19:36.528Z,882
2023-03-21T07:20:36.530Z,882
2023-03-21T07:21:36.528Z,890
2023-03-21T07:22:36.526Z,890
2023-03-21T07:23:36.527Z,890
2023-03-21T07:24:36.552Z,890
2023-03-21T07:25:36.851Z,890
2023-03-21T07:26:36.537Z,898
2023-03-21T07:27:37.094Z,898
2023-03-21T07:28:36.542Z,898
2023-03-21T07:29:36.543Z,898
2023-03-21T07:30:36.544Z,898
2023-03-21T07:31:36.573Z,940
2023-03-21T07:32:36.542Z,940
2023-03-21T07:33:36.545Z,940
2023-03-21T07:34:36.544Z,940
2023-03-21T07:35:36.852Z,940
2023-03-21T07:36:36.541Z,1024
2023-03-21T07:37:38.082Z,1024
2023-03-21T07:38:36.554Z,1024
2023-03-21T07:39:36.546Z,1024
2023-03-21T07:40:36.764Z,1024
2023-03-21T07:41:36.542Z,1024
2023-03-21T07:42:36.576Z,1024
2023-03-21T07:43:37.230Z,1024
2023-03-21T07:44:36.544Z,1024
2023-03-21T07:45:36.779Z,1024
2023-03-21T07:46:36.546Z,1033
2023-03-21T07:47:36.552Z,1040
2023-03-21T07:48:36.559Z,1040
2023-03-21T07:49:36.545Z,1040
2023-03-21T07:50:36.546Z,1040
2023-03-21T07:51:36.557Z,1040
2023-03-21T07:52:36.559Z,1104
2023-03-21T07:53:36.551Z,1142
2023-03-21T07:54:36.557Z,1142
2023-03-21T07:55:36.872Z,1142
2023-03-21T07:56:36.577Z,1142
2023-03-21T07:57:36.552Z,1142
2023-03-21T07:58:36.567Z,1257
2023-03-21T07:59:36.554Z,1257
2023-03-21T08:00:36.557Z,1257
2023-03-21T08:01:36.561Z,1257
2023-03-21T08:02:36.616Z,1257
2023-03-21T08:03:36.613Z,1323
2023-03-21T08:04:36.555Z,1323
2023-03-21T08:05:37.148Z,1323
2023-03-21T08:06:36.571Z,1323
2023-03-21T08:07:36.564Z,1323
2023-03-21T08:08:36.566Z,1509
2023-03-21T08:09:36.564Z,1509
2023-03-21T08:10:36.561Z,1509
2023-03-21T08:11:36.573Z,1509
2023-03-21T08:12:36.593Z,1509
2023-03-21T08:13:36.564Z,1651
2023-03-21T08:14:36.568Z,1651
2023-03-21T08:15:36.735Z,1651
2023-03-21T08:16:36.585Z,1651
2023-03-21T08:17:36.581Z,1739
2023-03-21T08:18:36.569Z,1739
2023-03-21T08:19:36.569Z,1739
2023-03-21T08:20:36.575Z,1739
2023-03-21T08:21:36.573Z,1739
2023-03-21T08:22:36.573Z,2073
2023-03-21T08:23:36.574Z,2073
2023-03-21T08:24:36.576Z,2073
2023-03-21T08:25:36.928Z,2073
2023-03-21T08:26:36.581Z,2073
2023-03-21T08:27:36.579Z,2402
2023-03-21T08:28:36.637Z,2402
2023-03-21T08:29:36.579Z,2402
2023-03-21T08:30:36.622Z,2402
2023-03-21T08:31:36.589Z,2402
2023-03-21T08:32:36.586Z,2473
2023-03-21T08:33:36.586Z,2473
2023-03-21T08:34:36.596Z,2473
2023-03-21T08:35:39.045Z,2473
2023-03-21T08:36:36.587Z,2473
2023-03-21T08:37:36.589Z,2675
2023-03-21T08:38:36.591Z,2675
2023-03-21T08:39:36.622Z,2675
2023-03-21T08:40:36.602Z,2675
2023-03-21T08:41:36.591Z,2675
2023-03-21T08:42:36.599Z,3070
2023-03-21T08:43:36.597Z,3070
2023-03-21T08:44:36.627Z,3070
2023-03-21T08:45:36.953Z,3070
2023-03-21T08:46:36.659Z,3070
2023-03-21T08:47:36.602Z,3174
2023-03-21T08:48:36.610Z,3174
2023-03-21T08:49:36.605Z,3174
2023-03-21T08:50:36.602Z,3174
2023-03-21T08:51:36.607Z,3174
2023-03-21T08:52:36.606Z,3472
2023-03-21T08:53:36.615Z,3472
2023-03-21T08:54:36.610Z,3472
2023-03-21T08:55:36.798Z,3472
2023-03-21T08:56:37.517Z,3609
2023-03-21T08:57:36.611Z,3609
2023-03-21T08:58:36.625Z,3609
2023-03-21T08:59:36.613Z,3609
2023-03-21T09:00:36.636Z,3609
2023-03-21T09:01:36.677Z,4097
2023-03-21T09:02:36.617Z,4130
2023-03-21T09:03:36.615Z,4297
2023-03-21T09:04:36.661Z,4657
2023-03-21T09:05:36.864Z,4707
2023-03-21T09:06:36.619Z,5352
2023-03-21T09:07:36.614Z,5608
2023-03-21T09:08:36.623Z,5608
2023-03-21T09:09:36.644Z,5401
2023-03-21T09:10:36.615Z,5638
2023-03-21T09:11:36.632Z,9300
2023-03-21T09:12:36.619Z,5220
2023-03-21T09:13:36.628Z,6327
2023-03-21T09:14:36.623Z,5625
2023-03-21T09:15:37.046Z,5455
2023-03-21T09:16:36.654Z,4536
2023-03-21T09:17:36.653Z,4536
2023-03-21T09:18:36.633Z,4630
2023-03-21T09:19:36.631Z,5548
2023-03-21T09:20:36.630Z,5059
2023-03-21T09:21:36.630Z,4343
2023-03-21T09:22:36.632Z,4122
2023-03-21T09:23:36.632Z,4025
2023-03-21T09:24:36.650Z,4025
2023-03-21T09:25:36.925Z,4245
2023-03-21T09:26:36.636Z,6038
2023-03-21T09:27:36.640Z,5006
2023-03-21T09:28:36.641Z,5006
2023-03-21T09:29:36.642Z,5006
2023-03-21T09:30:36.668Z,8823
2023-03-21T09:31:36.710Z,5716
2023-03-21T09:32:36.666Z,5580
2023-03-21T09:33:36.647Z,5997
2023-03-21T09:34:36.646Z,9224
2023-03-21T09:35:36.929Z,8486
2023-03-21T09:36:36.657Z,7391
2023-03-21T09:37:36.640Z,5979
2023-03-21T09:38:36.677Z,10184
2023-03-21T09:39:36.649Z,8543
2023-03-21T09:40:36.648Z,10141
2023-03-21T09:41:36.660Z,8543
2023-03-21T09:42:36.646Z,6634
2023-03-21T09:43:36.652Z,7013
2023-03-21T09:44:36.651Z,8302
2023-03-21T09:45:36.988Z,8302
2023-03-21T09:46:36.742Z,8302
2023-03-21T09:47:36.657Z,8302
2023-03-21T09:48:39.562Z,4553
2023-03-21T09:49:36.654Z,4216
2023-03-21T09:50:36.657Z,4216
2023-03-21T09:51:37.001Z,4166
2023-03-21T09:52:36.652Z,4277
2023-03-21T09:53:36.653Z,4277
2023-03-21T09:54:36.680Z,9901
2023-03-21T09:55:36.900Z,10651
2023-03-21T09:56:36.659Z,10651
2023-03-21T09:57:36.658Z,9415
2023-03-21T09:58:36.688Z,8478
2023-03-21T09:59:36.660Z,4513
2023-03-21T10:00:36.664Z,4353
2023-03-21T10:01:36.822Z,9404
2023-03-21T10:02:36.659Z,9592
2023-03-21T10:03:36.656Z,8541
2023-03-21T10:04:36.701Z,6590
2023-03-21T10:05:36.997Z,6590
2023-03-21T10:06:36.661Z,6203
2023-03-21T10:07:36.665Z,6955
2023-03-21T10:08:36.686Z,5065
2023-03-21T10:09:36.665Z,5055
2023-03-21T10:10:36.996Z,6707
2023-03-21T10:11:36.667Z,6380
2023-03-21T10:12:36.663Z,9217
2023-03-21T10:13:36.664Z,6957
2023-03-21T10:14:36.667Z,10167
2023-03-21T10:15:37.252Z,9181
2023-03-21T10:16:36.706Z,9895
2023-03-21T10:17:36.668Z,9895
2023-03-21T10:18:36.672Z,8270
2023-03-21T10:19:36.673Z,6739
2023-03-21T10:20:36.702Z,8962
2023-03-21T10:21:58.907Z,5604
2023-03-21T10:22:36.670Z,4515
2023-03-21T10:23:36.675Z,9082
2023-03-21T10:24:36.677Z,9361
2023-03-21T10:25:36.974Z,9676
2023-03-21T10:26:36.706Z,8559
2023-03-21T10:27:36.676Z,9612
2023-03-21T10:29:36.702Z,9249
2023-03-21T10:30:36.698Z,9270
2023-03-21T10:31:36.706Z,9583
2023-03-21T10:32:36.719Z,9535
2023-03-21T10:33:36.677Z,3946
2023-03-21T10:34:36.677Z,4536
2023-03-21T10:35:37.172Z,7958
2023-03-21T10:36:36.703Z,5373
2023-03-21T10:37:36.681Z,3653
2023-03-21T10:38:36.682Z,3433
2023-03-21T10:39:36.693Z,3804
2023-03-21T10:40:36.695Z,5466
2023-03-21T10:41:36.678Z,6101
2023-03-21T10:42:36.680Z,7417
2023-03-21T10:43:36.684Z,8130
2023-03-21T10:44:36.691Z,4759
2023-03-21T10:45:37.007Z,4472
2023-03-21T10:46:36.901Z,6377
2023-03-21T10:47:36.911Z,8230
2023-03-21T10:48:36.805Z,8325
2023-03-21T10:49:50.260Z,7381
2023-03-21T10:50:36.703Z,3931
2023-03-21T10:51:36.695Z,4116
2023-03-21T10:52:36.723Z,9154
2023-03-21T10:53:36.689Z,9382
2023-03-21T10:54:36.688Z,4914
2023-03-21T10:55:36.927Z,4805
2023-03-21T10:56:36.690Z,3653
2023-03-21T10:57:36.691Z,3653
2023-03-21T10:58:36.691Z,4286
2023-03-21T10:59:36.693Z,6841
2023-03-21T11:00:36.692Z,8549
2023-03-21T11:01:36.809Z,7798
2023-03-21T11:02:36.740Z,4202
2023-03-21T11:03:36.695Z,4501
2023-03-21T11:04:36.689Z,5275
2023-03-21T11:05:37.238Z,5275
2023-03-21T11:06:36.690Z,4448
2023-03-21T11:07:36.692Z,4022
2023-03-21T11:08:36.719Z,6088
2023-03-21T11:09:36.695Z,7132
2023-03-21T11:10:36.695Z,9552
2023-03-21T11:11:36.697Z,7420
2023-03-21T11:12:36.723Z,4754
2023-03-21T11:13:36.718Z,9430
2023-03-21T11:14:36.728Z,9352
2023-03-21T11:15:36.895Z,9415
2023-03-21T11:16:38.455Z,9296
2023-03-21T11:17:36.703Z,9183
2023-03-21T11:18:36.705Z,9162
2023-03-21T11:19:36.705Z,7923
2023-03-21T11:20:36.782Z,9337
2023-03-21T11:21:36.704Z,9245
2023-03-21T11:22:36.701Z,9068
2023-03-21T11:23:36.704Z,7705
2023-03-21T11:24:36.736Z,9018
2023-03-21T11:25:37.148Z,9091
2023-03-21T11:26:36.762Z,9177
2023-03-21T11:27:36.707Z,9160
2023-03-21T11:28:36.708Z,9251
2023-03-21T11:29:36.702Z,9441
2023-03-21T11:30:36.761Z,9623
2023-03-21T11:31:36.709Z,9663
2023-03-21T11:32:36.729Z,9719
2023-03-21T11:33:36.719Z,9689
2023-03-21T11:34:36.708Z,9641
2023-03-21T11:35:37.108Z,9552
2023-03-21T11:36:36.708Z,9681
2023-03-21T11:37:36.730Z,9055
2023-03-21T11:38:36.713Z,9601
2023-03-21T11:39:36.714Z,8937
2023-03-21T11:40:36.743Z,10088
2023-03-21T11:41:36.709Z,6080
2023-03-21T11:42:36.711Z,5897
2023-03-21T11:43:36.710Z,10404
2023-03-21T11:44:36.713Z,6079
2023-03-21T11:45:37.177Z,5044
2023-03-21T11:46:36.781Z,4600
2023-03-21T11:47:36.723Z,4545
2023-03-21T11:48:36.722Z,5237
2023-03-21T11:49:36.729Z,5180
2023-03-21T11:50:36.737Z,7362
2023-03-21T11:51:36.724Z,4614
2023-03-21T11:52:36.728Z,4922
2023-03-21T11:53:36.724Z,5864
2023-03-21T11:54:36.728Z,4456
2023-03-21T11:55:36.948Z,4369
2023-03-21T11:56:36.752Z,4387
2023-03-21T11:57:36.735Z,4689
2023-03-21T11:58:36.790Z,6173
2023-03-21T11:59:36.732Z,5802
2023-03-21T12:00:36.765Z,6080
2023-03-21T12:01:36.732Z,9303
2023-03-21T12:02:36.790Z,9616
2023-03-21T12:03:47.061Z,7239
2023-03-21T12:04:36.847Z,9541
2023-03-21T12:05:37.031Z,9395
2023-03-21T12:06:36.738Z,9315
2023-03-21T12:07:36.753Z,8847
2023-03-21T12:08:36.736Z,8937
2023-03-21T12:09:36.738Z,8831
2023-03-21T12:10:36.746Z,8827
2023-03-21T12:11:36.739Z,8712
2023-03-21T12:12:39.328Z,8549
2023-03-21T12:13:36.745Z,8537
2023-03-21T12:14:36.744Z,8537
2023-03-21T12:15:36.976Z,8537
2023-03-21T12:16:36.855Z,8537
2023-03-21T12:17:36.742Z,8537
2023-03-21T12:18:36.746Z,8537
2023-03-21T12:19:36.745Z,8537
2023-03-21T12:20:36.744Z,8537
2023-03-21T12:21:36.743Z,8519
2023-03-21T12:22:36.744Z,8543
2023-03-21T12:23:36.808Z,8543
2023-03-21T12:24:36.744Z,8543
2023-03-21T12:25:37.021Z,7175
2023-03-21T12:26:36.751Z,8541
2023-03-21T12:27:36.753Z,8541
2023-03-21T12:28:36.890Z,8670
2023-03-21T12:29:36.753Z,7119
2023-03-21T12:30:36.750Z,8960
2023-03-21T12:31:36.780Z,9095
2023-03-21T12:32:36.752Z,6613
2023-03-21T12:33:36.754Z,8972
2023-03-21T12:34:36.751Z,9141
2023-03-21T12:35:37.049Z,9247
2023-03-21T12:36:36.758Z,9097
2023-03-21T12:37:36.756Z,8970
2023-03-21T12:38:36.755Z,8898
2023-03-21T12:39:36.759Z,8867
2023-03-21T12:40:36.759Z,8845
2023-03-21T12:41:36.761Z,8859
2023-03-21T12:42:36.759Z,8776
2023-03-21T12:43:36.760Z,8141
2023-03-21T12:44:36.890Z,9080
2023-03-21T12:45:46.425Z,9030
2023-03-21T12:46:36.820Z,8331
2023-03-21T12:47:36.789Z,8915
2023-03-21T12:48:36.767Z,8312
2023-03-21T12:49:36.769Z,8968
2023-03-21T12:50:36.773Z,8863
2023-03-21T12:51:36.769Z,8694
2023-03-21T12:52:36.766Z,8035
2023-03-21T12:53:36.769Z,8539
2023-03-21T12:54:36.773Z,8566
2023-03-21T12:55:36.974Z,8547
2023-03-21T12:56:36.773Z,8646
2023-03-21T12:57:38.212Z,8728
2023-03-21T12:58:36.769Z,5778
2023-03-21T12:59:36.784Z,8766
2023-03-21T13:00:37.286Z,8774
2023-03-21T13:01:36.782Z,8849
2023-03-21T13:02:36.771Z,8993
2023-03-21T13:03:40.098Z,8786
2023-03-21T13:04:36.887Z,8531
2023-03-21T13:05:36.775Z,9268
2023-03-21T13:06:36.778Z,9432
2023-03-21T13:07:36.778Z,6227
2023-03-21T13:08:36.781Z,5189
2023-03-21T13:09:37.851Z,5576
2023-03-21T13:10:36.922Z,5047
2023-03-21T13:11:36.784Z,4136
2023-03-21T13:12:36.786Z,3969
2023-03-21T13:13:36.788Z,4171
2023-03-21T13:14:36.786Z,4258
2023-03-21T13:15:36.800Z,4123
2023-03-21T13:16:36.963Z,3935
2023-03-21T13:17:36.793Z,3741
2023-03-21T13:18:36.785Z,3976
2023-03-21T13:19:36.789Z,3607
2023-03-21T13:20:37.028Z,4288
2023-03-21T13:21:36.787Z,3573
2023-03-21T13:22:36.792Z,4344
2023-03-21T13:23:36.795Z,3566
2023-03-21T13:24:36.793Z,3741
2023-03-21T13:25:36.794Z,3741
2023-03-21T13:26:36.809Z,4013
2023-03-21T13:27:36.799Z,4207
2023-03-21T13:28:36.795Z,4207
2023-03-21T13:29:36.797Z,3503
2023-03-21T13:30:37.393Z,4038
2023-03-21T13:31:50.805Z,3543
2023-03-21T13:32:38.063Z,3396
2023-03-21T13:33:36.800Z,3366
2023-03-21T13:34:36.801Z,3520
2023-03-21T13:35:37.166Z,3756
2023-03-21T13:36:36.805Z,3756
2023-03-21T13:37:36.811Z,3756
2023-03-21T13:38:36.806Z,3351
2023-03-21T13:39:36.808Z,3393
2023-03-21T13:40:37.145Z,3547
2023-03-21T13:41:36.808Z,3625
2023-03-21T13:42:36.808Z,3625
2023-03-21T13:43:36.822Z,4275
2023-03-21T13:44:36.817Z,3377
2023-03-21T13:45:37.050Z,4033
2023-03-21T13:46:50.512Z,3430
2023-03-21T13:47:36.821Z,2983
2023-03-21T13:48:37.614Z,3432
2023-03-21T13:49:36.832Z,3715
2023-03-21T13:50:36.830Z,3577
2023-03-21T13:51:36.850Z,3186
2023-03-21T13:52:36.838Z,3050
2023-03-21T13:53:36.842Z,3937
2023-03-21T13:54:36.826Z,3513
2023-03-21T13:55:37.161Z,3237